Time;durP1;ratioP1;P1;durP2;ratioP2;P2;SDS_P1;SDS_P2;PMS_P1;PMS_P2;Temp;Humidity;BMP_temperature;BMP_pressure;BME280_temperature;BME280_humidity;BME280_pressure;Samples;Min_cycle;Max_cycle;Signal;HPM_P1;HPM_P2
2022/09/25 00:00:43;;;;;;;5.45;2.40;;;12.40;99.90;;;;;;5099909;28;20040;-66
2022/09/25 00:03:10;;;;;;;10.38;3.72;;;12.40;99.90;;;;;;5076473;28;20109;-66
2022/09/25 00:05:38;;;;;;;6.50;2.78;;;12.40;99.90;;;;;;5071964;28;20033;-66
2022/09/25 00:08:05;;;;;;;6.22;2.85;;;12.30;99.90;;;;;;5095680;28;20484;-66
2022/09/25 00:10:32;;;;;;;6.32;2.58;;;12.30;99.90;;;;;;5078954;28;20040;-66
2022/09/25 00:12:59;;;;;;;6.45;2.38;;;12.30;99.90;;;;;;5077826;28;20101;-67
2022/09/25 00:15:26;;;;;;;6.47;2.72;;;12.30;99.90;;;;;;5078323;28;20068;-67
2022/09/25 00:17:53;;;;;;;7.28;2.47;;;12.30;99.90;;;;;;5077060;28;20041;-66
2022/09/25 00:20:22;;;;;;;8.15;2.92;;;12.20;99.90;;;;;;5080227;28;20044;-66
2022/09/25 00:22:50;;;;;;;5.93;2.90;;;12.20;99.90;;;;;;5078102;28;20365;-66
2022/09/25 00:25:17;;;;;;;6.97;2.28;;;12.20;99.90;;;;;;5092414;28;20434;-68
2022/09/25 00:27:44;;;;;;;8.23;3.25;;;12.20;99.90;;;;;;5070107;28;20044;-66
2022/09/25 00:30:12;;;;;;;8.63;2.20;;;12.10;99.90;;;;;;5078135;28;20040;-66
2022/09/25 00:32:39;;;;;;;5.95;2.55;;;12.20;99.90;;;;;;5081783;28;20106;-66
2022/09/25 00:35:06;;;;;;;8.55;2.85;;;12.10;99.90;;;;;;5078246;28;20047;-66
2022/09/25 00:37:33;;;;;;;7.45;2.50;;;12.10;99.90;;;;;;5086386;28;20089;-66
2022/09/25 00:40:01;;;;;;;6.43;2.80;;;12.10;99.90;;;;;;5078408;28;20084;-70
2022/09/25 00:42:28;;;;;;;9.25;3.72;;;12.10;99.90;;;;;;5084161;28;20082;-66
2022/09/25 00:45:01;;;;;;;9.10;2.70;;;12.10;99.90;;;;;;5081310;28;20060;-66
2022/09/25 00:47:45;;;;;;;9.80;3.38;;;12.10;99.90;;;;;;5092379;28;20533;-66
2022/09/25 00:50:43;;;;;;;6.35;2.92;;;12.10;99.90;;;;;;5095761;28;20086;-66
2022/09/25 00:53:36;;;;;;;8.48;3.20;;;12.00;99.90;;;;;;5066632;28;20148;-66
2022/09/25 00:56:03;;;;;;;9.52;3.35;;;12.00;99.90;;;;;;5068886;28;20048;-66
2022/09/25 00:58:31;;;;;;;7.55;3.00;;;12.00;99.90;;;;;;5082901;28;20040;-66
2022/09/25 01:00:58;;;;;;;11.27;2.92;;;12.00;99.90;;;;;;5105874;28;20475;-66
2022/09/25 01:03:26;;;;;;;3.85;2.38;;;12.00;99.90;;;;;;5078050;28;20392;-66
2022/09/25 01:05:53;;;;;;;8.45;2.38;;;12.00;99.90;;;;;;5085289;28;20028;-67
2022/09/25 01:08:24;;;;;;;10.23;3.20;;;11.90;99.90;;;;;;5087406;28;20098;-69
2022/09/25 01:10:51;;;;;;;8.07;2.67;;;11.90;99.90;;;;;;5081333;28;20086;-67
2022/09/25 01:13:18;;;;;;;7.55;2.53;;;11.90;99.90;;;;;;5082270;28;20036;-66
2022/09/25 01:16:07;;;;;;;7.72;2.60;;;11.80;99.90;;;;;;5068569;28;20486;-66
2022/09/25 01:18:43;;;;;;;9.25;2.63;;;11.80;99.90;;;;;;5081539;28;20036;-66
2022/09/25 01:21:14;;;;;;;7.68;2.67;;;11.80;99.90;;;;;;5077791;28;20076;-66
2022/09/25 01:23:59;;;;;;;8.93;2.42;;;11.80;99.90;;;;;;5091343;28;20117;-67
2022/09/25 01:26:54;;;;;;;9.38;2.30;;;11.80;99.90;;;;;;5079798;28;20040;-67
2022/09/25 01:29:26;;;;;;;8.52;2.35;;;11.70;99.90;;;;;;5083374;28;20064;-66
2022/09/25 01:32:03;;;;;;;5.80;1.88;;;11.70;99.90;;;;;;5073190;28;20093;-66
2022/09/25 01:34:49;;;;;;;10.65;2.55;;;11.70;99.90;;;;;;5098445;28;20048;-66
2022/09/25 01:37:16;;;;;;;8.65;2.70;;;11.70;99.90;;;;;;5078657;28;20041;-66
2022/09/25 01:39:45;;;;;;;7.22;1.90;;;11.70;99.90;;;;;;5084372;28;20083;-66
2022/09/25 01:42:24;;;;;;;5.47;2.05;;;11.70;99.90;;;;;;5088622;28;20094;-66
2022/09/25 01:45:00;;;;;;;5.15;2.40;;;11.70;99.90;;;;;;5082118;28;20075;-66
2022/09/25 01:47:27;;;;;;;7.80;2.38;;;11.70;99.90;;;;;;5085678;28;20361;-66
2022/09/25 01:49:59;;;;;;;6.43;2.97;;;11.70;99.90;;;;;;5093966;28;20541;-66
2022/09/25 01:52:31;;;;;;;10.48;2.80;;;11.70;99.90;;;;;;5079872;28;20101;-66
2022/09/25 01:55:14;;;;;;;12.23;2.40;;;11.70;99.90;;;;;;5098015;28;20040;-66
2022/09/25 01:57:48;;;;;;;11.52;2.40;;;11.70;99.90;;;;;;5081345;28;20045;-67
2022/09/25 02:00:20;;;;;;;5.50;2.08;;;11.70;99.90;;;;;;5085403;28;20101;-66
2022/09/25 02:03:05;;;;;;;16.50;2.67;;;11.70;99.90;;;;;;5084779;28;20035;-66
2022/09/25 02:05:51;;;;;;;9.77;2.25;;;11.70;99.90;;;;;;5073507;28;20041;-66
2022/09/25 02:08:27;;;;;;;7.60;2.20;;;11.70;99.90;;;;;;5089934;28;20052;-67
2022/09/25 02:11:01;;;;;;;6.53;2.22;;;11.70;99.90;;;;;;5096768;28;20068;-66
2022/09/25 02:13:40;;;;;;;8.20;2.03;;;11.70;99.90;;;;;;5080530;28;20036;-67
2022/09/25 02:16:10;;;;;;;13.73;3.05;;;11.70;99.90;;;;;;5087958;28;20048;-66
2022/09/25 02:21:28;;;;;;;7.13;2.13;;;11.60;99.90;;;;;;5095045;28;20472;-66
2022/09/25 02:24:09;;;;;;;6.20;2.35;;;11.60;99.90;;;;;;5081996;28;20465;-67
2022/09/25 02:26:37;;;;;;;7.90;2.10;;;11.50;99.90;;;;;;5076687;28;20077;-70
2022/09/25 02:29:04;;;;;;;7.57;2.45;;;11.50;99.90;;;;;;5090055;28;20123;-66
2022/09/25 02:31:39;;;;;;;10.43;3.42;;;11.40;99.90;;;;;;5078877;28;20825;-67
2022/09/25 02:34:06;;;;;;;10.00;2.13;;;11.40;99.90;;;;;;5084568;28;20044;-66
2022/09/25 02:36:41;;;;;;;9.13;3.38;;;11.40;99.90;;;;;;5076613;28;20102;-66
2022/09/25 02:39:08;;;;;;;11.18;2.85;;;11.30;99.90;;;;;;5083388;28;20048;-66
2022/09/25 02:41:54;;;;;;;8.05;2.95;;;11.30;99.90;;;;;;5077457;28;20569;-66
2022/09/25 02:44:40;;;;;;;11.57;2.63;;;11.20;99.90;;;;;;5081563;28;20044;-66
2022/09/25 02:47:38;;;;;;;10.18;3.35;;;11.20;99.90;;;;;;5079873;28;20044;-66
2022/09/25 02:50:20;;;;;;;9.07;3.03;;;11.20;99.90;;;;;;5087688;28;20072;-66
2022/09/25 02:53:07;;;;;;;7.93;3.38;;;11.10;99.90;;;;;;5082257;28;20052;-66
2022/09/25 02:55:37;;;;;;;8.70;3.28;;;11.10;99.90;;;;;;5080310;28;20097;-66
2022/09/25 02:58:44;;;;;;;8.57;3.30;;;11.00;99.90;;;;;;5082379;28;20047;-66
2022/09/25 03:01:13;;;;;;;9.27;3.30;;;11.00;99.90;;;;;;5007069;28;20607;-69
2022/09/25 03:03:40;;;;;;;8.32;4.10;;;10.90;99.90;;;;;;5012184;28;20068;-66
2022/09/25 03:06:07;;;;;;;8.05;3.47;;;10.90;99.90;;;;;;5042784;28;20529;-65
2022/09/25 03:08:38;;;;;;;4.38;2.53;;;10.90;99.90;;;;;;5079307;28;20052;-67
2022/09/25 03:11:06;;;;;;;8.15;3.33;;;10.90;99.90;;;;;;5084200;28;20472;-66
2022/09/25 03:13:33;;;;;;;5.80;2.90;;;10.90;99.90;;;;;;5081125;28;20048;-66
2022/09/25 03:16:13;;;;;;;9.88;3.00;;;10.80;99.90;;;;;;5091246;28;20381;-66
2022/09/25 03:18:40;;;;;;;;;;;10.80;99.90;;;;;;5082796;28;20043;-66
2022/09/25 03:21:07;;;;;;;6.53;3.03;;;10.80;99.90;;;;;;5077386;28;19916;-66
2022/09/25 03:23:34;;;;;;;5.90;3.00;;;10.70;99.90;;;;;;5076659;28;20040;-66
2022/09/25 03:26:03;;;;;;;7.20;3.00;;;10.70;99.90;;;;;;5077316;28;20074;-67
2022/09/25 03:28:30;;;;;;;16.20;3.67;;;10.60;99.90;;;;;;5098233;28;20032;-66
2022/09/25 03:31:02;;;;;;;9.32;3.22;;;10.60;99.90;;;;;;5077740;28;20540;-66
2022/09/25 03:33:35;;;;;;;9.05;2.95;;;10.60;99.90;;;;;;5077177;28;20038;-66
2022/09/25 03:36:11;;;;;;;11.32;4.53;;;10.60;99.90;;;;;;5077299;28;20094;-66
2022/09/25 03:38:40;;;;;;;10.43;4.07;;;10.50;99.90;;;;;;5081368;28;20440;-66
2022/09/25 03:41:08;;;;;;;7.18;3.40;;;10.50;99.90;;;;;;5081862;28;20127;-66
2022/09/25 03:43:36;;;;;;;10.73;3.53;;;10.50;99.90;;;;;;5059561;28;20032;-66
2022/09/25 03:46:11;;;;;;;7.57;3.10;;;10.40;99.90;;;;;;5092482;28;20556;-66
2022/09/25 03:48:38;;;;;;;11.55;3.38;;;10.40;99.90;;;;;;5078360;28;20040;-66
2022/09/25 03:51:05;;;;;;;6.88;3.10;;;10.40;99.90;;;;;;5076427;28;20090;-67
2022/09/25 03:53:32;;;;;;;8.23;3.67;;;10.40;99.90;;;;;;5097243;28;20075;-66
2022/09/25 03:56:04;;;;;;;8.55;3.10;;;10.30;99.90;;;;;;5074748;28;20048;-67
2022/09/25 03:58:31;;;;;;;6.60;2.97;;;10.40;99.90;;;;;;5083108;28;20045;-70
2022/09/25 04:00:57;;;;;;;9.95;3.40;;;10.30;99.90;;;;;;5074894;28;20427;-66
2022/09/25 04:03:28;;;;;;;9.13;3.30;;;10.30;99.90;;;;;;5080753;28;20059;-66
2022/09/25 04:05:55;;;;;;;7.60;3.17;;;10.20;99.90;;;;;;5074146;28;20070;-66
2022/09/25 04:08:25;;;;;;;9.98;3.25;;;10.20;99.90;;;;;;5061360;28;20094;-66
2022/09/25 04:10:55;;;;;;;8.52;3.60;;;10.20;99.90;;;;;;5070937;28;20073;-66
2022/09/25 04:13:22;;;;;;;;;;;10.20;99.90;;;;;;5078375;28;20076;-66
2022/09/25 04:15:50;;;;;;;10.75;3.63;;;10.20;99.90;;;;;;5079401;28;19920;-66
2022/09/25 04:18:17;;;;;;;11.82;2.90;;;10.10;99.90;;;;;;5075862;28;20074;-66
2022/09/25 04:20:44;;;;;;;10.70;3.65;;;10.10;99.90;;;;;;5095851;28;20089;-69
2022/09/25 04:23:11;;;;;;;10.90;3.20;;;10.10;99.90;;;;;;5072273;28;20052;-67
2022/09/25 04:25:38;;;;;;;10.93;3.92;;;10.10;99.90;;;;;;5071950;28;20371;-66
2022/09/25 04:28:05;;;;;;;8.13;2.80;;;10.10;99.90;;;;;;5080990;28;20109;-66
2022/09/25 04:30:32;;;;;;;9.45;2.67;;;10.00;99.90;;;;;;5079316;28;20041;-65
2022/09/25 04:35:45;;;;;;;13.13;3.17;;;10.00;99.90;;;;;;5080951;28;20040;-66
2022/09/25 04:38:12;;;;;;;9.98;3.17;;;10.00;99.90;;;;;;5089010;28;20406;-66
2022/09/25 04:40:39;;;;;;;7.05;3.38;;;10.00;99.90;;;;;;5095104;28;20529;-66
2022/09/25 04:43:06;;;;;;;9.85;3.60;;;9.90;99.90;;;;;;5084784;28;20043;-65
2022/09/25 04:45:34;;;;;;;10.27;2.70;;;9.90;99.90;;;;;;5086491;28;20384;-66
2022/09/25 04:48:01;;;;;;;10.40;3.42;;;9.90;99.90;;;;;;5085915;28;20429;-66
2022/09/25 04:50:28;;;;;;;13.40;4.57;;;9.90;99.90;;;;;;5087703;28;20044;-66
2022/09/25 04:52:58;;;;;;;7.35;2.83;;;9.90;99.90;;;;;;5084701;28;20072;-66
2022/09/25 04:55:26;;;;;;;9.73;3.25;;;9.90;99.90;;;;;;5084679;28;20368;-65
2022/09/25 04:57:53;;;;;;;11.70;3.22;;;9.90;99.90;;;;;;5086806;28;20040;-66
2022/09/25 05:00:26;;;;;;;7.47;3.70;;;9.80;99.90;;;;;;5100530;28;20052;-67
2022/09/25 05:02:53;;;;;;;6.87;2.63;;;9.80;99.90;;;;;;5069826;28;20094;-66
2022/09/25 05:05:20;;;;;;;8.77;3.55;;;9.80;99.90;;;;;;5077696;28;20044;-67
2022/09/25 05:08:06;;;;;;;16.50;4.95;;;9.80;99.90;;;;;;5087049;28;20056;-65
2022/09/25 05:10:38;;;;;;;6.07;2.63;;;9.80;99.90;;;;;;5083133;28;20533;-66
2022/09/25 05:13:05;;;;;;;19.50;3.95;;;9.80;99.90;;;;;;5062892;28;20126;-66
2022/09/25 05:15:32;;;;;;;7.03;3.00;;;9.80;99.90;;;;;;5103087;28;20044;-66
2022/09/25 05:18:07;;;;;;;5.72;3.38;;;9.80;99.90;;;;;;5085355;28;20041;-66
2022/09/25 05:20:34;;;;;;;10.20;3.20;;;9.80;99.90;;;;;;5078848;28;20048;-67
2022/09/25 05:23:03;;;;;;;99.20;70.20;;;9.70;99.90;;;;;;5083676;28;20036;-65
2022/09/25 05:25:30;;;;;;;12.65;7.22;;;9.70;99.90;;;;;;5080699;28;20147;-70
2022/09/25 05:27:57;;;;;;;12.68;5.50;;;9.80;99.90;;;;;;5079933;28;20036;-66
2022/09/25 05:30:25;;;;;;;9.98;3.97;;;9.70;99.90;;;;;;5075684;28;20118;-65
2022/09/25 05:32:53;;;;;;;11.43;3.40;;;9.80;99.90;;;;;;5102317;28;20488;-66
2022/09/25 05:35:21;;;;;;;7.47;3.53;;;9.70;99.90;;;;;;5080891;28;20052;-66
2022/09/25 05:37:48;;;;;;;6.57;3.10;;;9.70;99.90;;;;;;5090702;28;20049;-65
2022/09/25 05:40:15;;;;;;;10.45;3.45;;;9.70;99.90;;;;;;5088365;28;20097;-65
2022/09/25 05:42:43;;;;;;;9.85;3.72;;;9.60;99.90;;;;;;5079112;28;20074;-65
2022/09/25 05:45:10;;;;;;;13.52;3.20;;;9.60;99.90;;;;;;5083666;28;20075;-71
2022/09/25 05:47:41;;;;;;;10.77;3.50;;;9.60;99.90;;;;;;5082021;28;20083;-66
2022/09/25 05:50:09;;;;;;;8.20;3.03;;;9.60;99.90;;;;;;5075650;28;20036;-65
2022/09/25 05:52:36;;;;;;;9.68;3.10;;;9.60;99.90;;;;;;5063243;28;20115;-66
2022/09/25 05:55:04;;;;;;;8.70;3.60;;;9.60;99.90;;;;;;5082288;28;20089;-66
2022/09/25 05:57:33;;;;;;;8.20;2.70;;;9.60;99.90;;;;;;5068168;28;20040;-65
2022/09/25 06:00:00;;;;;;;8.38;3.33;;;9.60;99.90;;;;;;5092021;28;20040;-65
2022/09/25 06:02:27;;;;;;;6.88;2.80;;;9.50;99.90;;;;;;5083192;28;20051;-65
2022/09/25 06:04:54;;;;;;;7.30;2.60;;;9.60;99.90;;;;;;5086481;28;20044;-65
2022/09/25 06:07:21;;;;;;;8.25;3.70;;;9.50;99.90;;;;;;5075570;28;20057;-65
2022/09/25 06:09:48;;;;;;;8.18;2.70;;;9.40;99.90;;;;;;5076789;28;20434;-65
2022/09/25 06:12:14;;;;;;;8.95;3.20;;;9.40;99.90;;;;;;5078592;28;20097;-65
2022/09/25 06:14:42;;;;;;;10.68;2.50;;;9.40;99.90;;;;;;5083672;28;20088;-66
2022/09/25 06:17:08;;;;;;;12.85;3.60;;;9.40;99.90;;;;;;5081324;28;20118;-65
2022/09/25 06:19:35;;;;;;;7.38;3.47;;;9.30;99.90;;;;;;5079608;28;20041;-65
2022/09/25 06:22:02;;;;;;;9.50;3.45;;;9.30;99.90;;;;;;5072862;28;20066;-65
2022/09/25 06:24:29;;;;;;;8.32;3.50;;;9.30;99.90;;;;;;5086393;28;20040;-69
2022/09/25 06:26:56;;;;;;;11.07;4.00;;;9.30;99.90;;;;;;5078924;28;20078;-66
2022/09/25 06:29:23;;;;;;;9.50;3.35;;;9.40;99.90;;;;;;5084216;28;20032;-65
2022/09/25 06:31:51;;;;;;;5.57;3.13;;;9.40;99.90;;;;;;5091286;28;20090;-68
2022/09/25 06:34:18;;;;;;;7.63;2.75;;;9.40;99.90;;;;;;5079564;28;20453;-66
2022/09/25 06:36:44;;;;;;;7.78;2.72;;;9.40;99.90;;;;;;5085422;28;20049;-65
2022/09/25 06:39:11;;;;;;;5.13;2.85;;;9.40;99.90;;;;;;5081645;28;20066;-65
2022/09/25 06:41:40;;;;;;;10.77;4.28;;;9.40;99.90;;;;;;5081122;28;20052;-65
2022/09/25 06:44:08;;;;;;;7.18;3.20;;;9.50;99.90;;;;;;5090808;28;20483;-65
2022/09/25 06:46:35;;;;;;;9.35;4.20;;;9.50;99.90;;;;;;5072625;28;20106;-65
2022/09/25 06:49:02;;;;;;;7.20;2.90;;;9.50;99.90;;;;;;5063315;28;20055;-65
2022/09/25 06:51:33;;;;;;;9.65;3.60;;;9.60;99.90;;;;;;5064262;28;20060;-71
2022/09/25 06:54:00;;;;;;;11.32;3.38;;;9.70;99.90;;;;;;5072979;28;20047;-67
2022/09/25 06:56:27;;;;;;;4.88;3.03;;;9.70;99.90;;;;;;5088900;28;20044;-65
2022/09/25 06:58:53;;;;;;;9.98;3.40;;;9.80;99.90;;;;;;5078951;28;20040;-65
2022/09/25 07:01:20;;;;;;;7.32;3.38;;;9.80;99.90;;;;;;5082147;28;20048;-65
2022/09/25 07:03:48;;;;;;;9.63;3.70;;;9.90;99.90;;;;;;5081402;28;20098;-65
2022/09/25 07:06:22;;;;;;;11.48;4.03;;;9.90;99.90;;;;;;5066377;28;20044;-66
2022/09/25 07:08:49;;;;;;;11.00;3.75;;;10.00;99.90;;;;;;5080872;28;20048;-69
2022/09/25 07:11:20;;;;;;;9.15;3.13;;;10.00;99.90;;;;;;5063581;28;20144;-65
2022/09/25 07:13:55;;;;;;;10.25;3.03;;;10.10;99.90;;;;;;5086124;28;20541;-65
2022/09/25 07:16:24;;;;;;;6.93;3.70;;;10.10;99.90;;;;;;5097837;28;20044;-66
2022/09/25 07:18:56;;;;;;;9.27;3.13;;;10.20;99.90;;;;;;5080103;28;20037;-65
2022/09/25 07:21:23;;;;;;;7.88;3.45;;;10.20;99.90;;;;;;5075908;28;20050;-66
2022/09/25 07:23:50;;;;;;;6.43;3.00;;;10.30;99.90;;;;;;5070486;28;20537;-66
2022/09/25 07:26:21;;;;;;;10.48;3.95;;;10.30;99.90;;;;;;5074445;28;20047;-66
2022/09/25 07:28:53;;;;;;;10.30;3.30;;;10.40;99.90;;;;;;5071650;28;20032;-65
2022/09/25 07:31:27;;;;;;;10.88;3.10;;;10.40;99.90;;;;;;5096279;28;20048;-66
2022/09/25 07:33:54;;;;;;;4.90;2.95;;;10.50;99.90;;;;;;5084349;28;20121;-65
2022/09/25 07:36:21;;;;;;;13.40;3.63;;;10.50;99.90;;;;;;5085045;28;20056;-65
2022/09/25 07:38:49;;;;;;;10.35;3.58;;;10.60;99.90;;;;;;5083436;28;20039;-65
2022/09/25 07:41:17;;;;;;;8.70;3.35;;;10.60;99.90;;;;;;5080618;28;20081;-66
2022/09/25 07:43:44;;;;;;;15.93;4.43;;;10.60;99.90;;;;;;5095469;28;20523;-65
2022/09/25 07:46:11;;;;;;;13.32;4.45;;;10.70;99.90;;;;;;5090858;28;20098;-66
2022/09/25 07:48:38;;;;;;;6.25;3.50;;;10.70;99.90;;;;;;5082637;28;20115;-66
2022/09/25 07:51:07;;;;;;;11.48;3.80;;;10.80;99.90;;;;;;5077509;28;20041;-65
2022/09/25 07:53:34;;;;;;;10.70;3.28;;;10.90;99.90;;;;;;5079343;28;20452;-66
2022/09/25 07:56:01;;;;;;;8.75;3.10;;;10.90;99.90;;;;;;5077945;28;20040;-65
2022/09/25 07:58:33;;;;;;;10.52;2.88;;;11.00;99.90;;;;;;5082908;28;20037;-65
2022/09/25 08:01:03;;;;;;;8.20;2.60;;;11.00;99.90;;;;;;5079330;28;20039;-65
2022/09/25 08:03:30;;;;;;;13.48;2.95;;;11.10;99.90;;;;;;5082586;28;20047;-67
2022/09/25 08:06:04;;;;;;;10.52;3.00;;;11.10;99.90;;;;;;5086424;28;20079;-65
2022/09/25 08:08:32;;;;;;;10.57;2.83;;;11.20;99.90;;;;;;5058940;28;20091;-67
2022/09/25 08:11:01;;;;;;;8.30;2.17;;;11.20;99.90;;;;;;5079092;28;20048;-67
2022/09/25 08:13:31;;;;;;;49.83;31.58;;;11.30;99.90;;;;;;5075437;28;20895;-67
2022/09/25 08:16:02;;;;;;;13.38;8.13;;;11.30;99.90;;;;;;5072112;28;20040;-68
2022/09/25 08:18:29;;;;;;;7.55;4.07;;;11.40;99.90;;;;;;5060484;28;20060;-69
2022/09/25 08:21:03;;;;;;;7.32;3.40;;;11.40;99.90;;;;;;5078676;28;20098;-68
2022/09/25 08:23:30;;;;;;;11.45;3.50;;;11.50;99.90;;;;;;5083156;28;20039;-69
2022/09/25 08:25:57;;;;;;;5.63;2.85;;;11.50;99.90;;;;;;5079093;28;20114;-68
2022/09/25 08:28:24;;;;;;;8.57;2.17;;;11.60;99.90;;;;;;5060079;28;20048;-68
2022/09/25 08:30:52;;;;;;;4.32;2.20;;;11.60;99.90;;;;;;5095318;28;20102;-68
2022/09/25 08:33:20;;;;;;;7.63;2.28;;;11.70;99.90;;;;;;5073965;28;20048;-68
2022/09/25 08:36:00;;;;;;;5.82;2.38;;;11.80;99.90;;;;;;5081387;28;20105;-68
2022/09/25 08:38:27;;;;;;;5.40;2.67;;;11.80;99.90;;;;;;5058896;28;20532;-69
2022/09/25 08:41:08;;;;;;;7.20;2.70;;;11.80;99.90;;;;;;5060576;28;20044;-68
2022/09/25 08:43:37;;;;;;;8.00;3.03;;;11.90;99.90;;;;;;5080912;28;20118;-69
2022/09/25 08:49:01;;;;;;;6.65;3.47;;;12.00;99.90;;;;;;5091841;28;20296;-68
2022/09/25 08:51:29;;;;;;;7.78;2.72;;;12.10;99.90;;;;;;5086694;28;20052;-68
2022/09/25 08:53:56;;;;;;;8.52;2.30;;;12.10;99.90;;;;;;5074870;28;20033;-68
2022/09/25 08:56:24;;;;;;;5.18;2.55;;;12.20;99.90;;;;;;5081076;28;20043;-69
2022/09/25 08:59:04;;;;;;;10.52;2.95;;;12.20;99.90;;;;;;5076420;28;20093;-68
2022/09/25 09:01:53;;;;;;;11.60;2.28;;;12.30;99.90;;;;;;5078098;28;20052;-68
2022/09/25 09:04:30;;;;;;;9.32;2.92;;;12.30;99.90;;;;;;5073097;28;20052;-65
2022/09/25 09:07:06;;;;;;;9.00;3.17;;;12.30;99.90;;;;;;5075844;28;20465;-68
2022/09/25 09:09:56;;;;;;;9.88;2.97;;;12.40;99.90;;;;;;5061166;28;20086;-65
2022/09/25 09:12:42;;;;;;;8.30;2.15;;;12.40;99.90;;;;;;5078012;28;20036;-67
2022/09/25 09:15:22;;;;;;;8.35;2.85;;;12.50;99.90;;;;;;5094319;28;21393;-66
2022/09/25 09:17:49;;;;;;;7.05;2.72;;;12.50;99.90;;;;;;5072772;28;20075;-67
2022/09/25 09:20:23;;;;;;;5.45;2.13;;;12.60;99.90;;;;;;5066706;28;20040;-67
2022/09/25 09:22:51;;;;;;;9.18;1.92;;;12.60;99.90;;;;;;5098718;28;20043;-67
2022/09/25 09:25:31;;;;;;;8.05;1.90;;;12.70;99.90;;;;;;5092828;28;20036;-67
2022/09/25 09:28:30;;;;;;;7.60;2.67;;;12.70;99.90;;;;;;5082103;28;20110;-67
2022/09/25 09:31:00;;;;;;;;;;;12.80;99.90;;;;;;5045993;28;20043;-66
2022/09/25 09:33:55;;;;;;;7.25;2.63;;;12.80;99.90;;;;;;5089277;28;19939;-67
2022/09/25 09:36:43;;;;;;;6.93;2.20;;;12.90;99.90;;;;;;5075309;28;20114;-67
2022/09/25 09:39:18;;;;;;;8.10;2.47;;;13.00;99.90;;;;;;5098014;28;20097;-66
2022/09/25 09:41:53;;;;;;;7.45;2.42;;;13.00;99.90;;;;;;5078901;28;20040;-66
2022/09/25 09:44:34;;;;;;;7.30;1.75;;;13.10;99.90;;;;;;5087206;28;20499;-66
2022/09/25 09:47:21;;;;;;;9.73;2.38;;;13.10;99.90;;;;;;5082826;28;20514;-67
2022/09/25 09:49:54;;;;;;;7.20;2.20;;;13.20;99.90;;;;;;5078552;28;20040;-67
2022/09/25 09:52:24;;;;;;;6.43;2.17;;;13.30;99.90;;;;;;5095511;28;20052;-66
2022/09/25 09:54:52;;;;;;;;;;;13.40;99.90;;;;;;5086110;28;20044;-68
2022/09/25 09:57:26;;;;;;;3.38;1.40;;;13.40;99.90;;;;;;5097487;28;19928;-67
2022/09/25 09:59:54;;;;;;;7.55;1.85;;;13.50;99.90;;;;;;5082411;28;20079;-67
2022/09/25 10:02:44;;;;;;;6.30;2.15;;;13.50;99.90;;;;;;5074280;28;20036;-69
2022/09/25 10:05:37;;;;;;;4.75;1.83;;;13.50;99.90;;;;;;5066384;28;20142;-67
2022/09/25 10:08:04;;;;;;;4.95;1.60;;;13.60;99.90;;;;;;5081389;28;20537;-69
2022/09/25 10:10:34;;;;;;;8.25;1.50;;;13.60;99.90;;;;;;5074699;28;20040;-68
2022/09/25 10:13:05;;;;;;;4.72;1.70;;;13.70;99.90;;;;;;5080694;28;20040;-66
2022/09/25 10:15:37;;;;;;;10.32;6.18;;;13.70;99.90;;;;;;5074170;28;20064;-69
2022/09/25 10:18:04;;;;;;;8.15;3.28;;;13.80;99.90;;;;;;5062257;28;20393;-67
2022/09/25 10:20:40;;;;;;;6.60;1.67;;;13.90;99.90;;;;;;5103646;28;20114;-66
2022/09/25 10:23:17;;;;;;;5.80;1.85;;;13.90;99.90;;;;;;5068776;28;20048;-66
2022/09/25 10:25:43;;;;;;;8.13;1.60;;;14.00;99.90;;;;;;5094925;28;20097;-66
2022/09/25 10:28:35;;;;;;;6.15;1.58;;;14.10;99.90;;;;;;5080329;28;20045;-64
2022/09/25 10:31:02;;;;;;;4.63;1.58;;;14.20;99.90;;;;;;5080387;28;20127;-63
2022/09/25 10:33:30;;;;;;;7.45;1.73;;;14.30;99.90;;;;;;5088326;28;20084;-66
2022/09/25 10:35:57;;;;;;;3.42;1.50;;;14.30;99.90;;;;;;5063801;28;20076;-66
2022/09/25 10:38:33;;;;;;;6.05;1.70;;;14.30;99.90;;;;;;5077455;28;20040;-68
2022/09/25 10:41:21;;;;;;;4.75;2.05;;;14.40;99.90;;;;;;5087808;28;20117;-71
2022/09/25 10:43:59;;;;;;;4.90;1.33;;;14.50;99.90;;;;;;5097051;28;20044;-71
2022/09/25 10:50:09;;;;;;;6.72;1.50;;;14.60;99.90;;;;;;5083708;28;20040;-70
2022/09/25 10:52:06;;;;;;;7.35;3.90;;;14.60;99.90;;;;;;5095304;28;20039;-71
2022/09/25 10:54:34;;;;;;;71.82;49.90;;;14.60;99.90;;;;;;5067928;28;20036;-70
2022/09/25 10:57:36;;;;;;;11.95;7.55;;;14.60;99.90;;;;;;5097639;28;20048;-74
2022/09/25 11:00:08;;;;;;;4.28;1.70;;;14.70;99.90;;;;;;5081853;28;20049;-74
2022/09/25 11:02:40;;;;;;;6.28;2.25;;;14.70;99.90;;;;;;5069399;28;20064;-73
2022/09/25 11:05:14;;;;;;;8.50;2.10;;;14.70;99.90;;;;;;5076094;28;20036;-72
2022/09/25 11:07:53;;;;;;;3.10;1.27;;;14.80;99.90;;;;;;5079167;28;20059;-67
2022/09/25 11:10:28;;;;;;;5.13;2.42;;;14.80;99.90;;;;;;5074695;28;20072;-65
2022/09/25 11:12:56;;;;;;;3.63;1.33;;;14.70;99.90;;;;;;5064098;28;20052;-71
2022/09/25 11:15:26;;;;;;;7.82;1.67;;;14.70;99.90;;;;;;5074004;28;20155;-71
2022/09/25 11:17:54;;;;;;;2.88;1.30;;;14.70;99.90;;;;;;5073238;28;20044;-69
2022/09/25 11:20:26;;;;;;;5.47;1.40;;;14.80;99.90;;;;;;5080074;28;20076;-67
2022/09/25 11:22:59;;;;;;;4.53;1.88;;;14.80;99.90;;;;;;5079152;28;20044;-69
2022/09/25 11:25:51;;;;;;;5.68;1.30;;;14.80;99.90;;;;;;5077829;28;20063;-70
2022/09/25 11:28:30;;;;;;;2.75;1.27;;;14.80;99.90;;;;;;5079324;28;20068;-70
2022/09/25 11:31:14;;;;;;;4.63;1.67;;;14.90;99.90;;;;;;5076173;28;20465;-70
2022/09/25 11:33:46;;;;;;;3.83;1.35;;;15.00;99.90;;;;;;5075637;28;20143;-70
2022/09/25 11:36:18;;;;;;;3.10;1.35;;;15.00;99.90;;;;;;5082668;28;20523;-72
2022/09/25 11:42:00;;;;;;;9.43;2.08;;;15.20;99.90;;;;;;5072579;28;20432;-67
2022/09/25 11:44:56;;;;;;;18.20;10.38;;;15.30;99.90;;;;;;5067531;28;20052;-71
2022/09/25 11:47:35;;;;;;;198.15;160.18;;;15.50;99.90;;;;;;5097839;28;20040;-68
2022/09/25 11:50:02;;;;;;;15.70;13.48;;;15.60;99.90;;;;;;5091731;28;20045;-70
2022/09/25 11:52:38;;;;;;;9.18;6.32;;;15.70;99.90;;;;;;5046104;28;20048;-67
2022/09/25 11:55:45;;;;;;;6.50;2.45;;;15.70;99.90;;;;;;5079914;28;20036;-68
2022/09/25 11:58:32;;;;;;;4.47;1.45;;;15.70;99.90;;;;;;5043612;28;20076;-68
2022/09/25 12:01:11;;;;;;;3.65;1.40;;;15.80;99.90;;;;;;5072574;28;20036;-68
2022/09/25 12:04:11;;;;;;;2.28;1.63;;;15.90;99.90;;;;;;5072493;28;20050;-69
2022/09/25 12:06:52;;;;;;;5.28;1.77;;;15.90;99.90;;;;;;5076100;28;20110;-68
2022/09/25 12:09:42;;;;;;;2.38;1.20;;;16.00;99.90;;;;;;5096275;28;20040;-68
2022/09/25 12:12:23;;;;;;;2.20;1.10;;;16.10;98.80;;;;;;5062417;28;20048;-69
2022/09/25 12:14:54;;;;;;;8.05;4.30;;;16.20;98.90;;;;;;5083441;28;20540;-68
2022/09/25 12:17:27;;;;;;;3.30;2.10;;;16.20;99.90;;;;;;5065058;28;20426;-68
2022/09/25 12:20:16;;;;;;;5.05;1.65;;;16.20;97.40;;;;;;5084801;28;20037;-68
2022/09/25 12:23:05;;;;;;;4.25;1.27;;;16.20;98.20;;;;;;5093622;28;20040;-68
2022/09/25 12:25:39;;;;;;;2.97;1.03;;;16.20;98.50;;;;;;5077034;28;20052;-68
2022/09/25 12:28:25;;;;;;;4.93;1.30;;;16.20;96.30;;;;;;5081157;28;20363;-70
2022/09/25 12:31:22;;;;;;;3.63;0.93;;;16.10;96.50;;;;;;5083250;28;20039;-68
2022/09/25 12:34:07;;;;;;;4.50;1.13;;;16.10;96.30;;;;;;5079919;28;20044;-69
2022/09/25 12:36:39;;;;;;;3.22;1.23;;;16.10;97.30;;;;;;5077897;28;20053;-68
2022/09/25 12:39:26;;;;;;;3.80;1.35;;;16.20;98.80;;;;;;5086246;28;20040;-68
2022/09/25 12:42:06;;;;;;;5.13;1.58;;;16.20;95.40;;;;;;5072922;28;20044;-68
2022/09/25 12:44:55;;;;;;;2.40;1.35;;;16.20;95.50;;;;;;5064768;28;20041;-69
2022/09/25 12:47:45;;;;;;;4.43;1.25;;;16.30;93.90;;;;;;5057773;28;20098;-68
2022/09/25 12:50:16;;;;;;;10.23;2.05;;;16.20;93.90;;;;;;5075547;28;20502;-68
2022/09/25 12:52:51;;;;;;;4.30;1.45;;;16.30;96.00;;;;;;5053445;28;20109;-68
2022/09/25 12:55:45;;;;;;;2.80;0.95;;;16.30;94.40;;;;;;5062921;28;20094;-69
2022/09/25 12:58:20;;;;;;;5.55;1.58;;;16.50;94.80;;;;;;5076582;28;20540;-68
2022/09/25 13:00:48;;;;;;;1.98;0.85;;;16.60;95.00;;;;;;5091382;28;20123;-70
2022/09/25 13:03:42;;;;;;;2.40;0.95;;;16.80;93.40;;;;;;5078925;28;20503;-69
2022/09/25 13:06:27;;;;;;;2.95;1.25;;;16.80;92.50;;;;;;5077343;28;20040;-68
2022/09/25 13:09:06;;;;;;;2.13;0.98;;;16.90;91.90;;;;;;5067660;28;20040;-68
2022/09/25 13:11:59;;;;;;;2.70;1.10;;;16.90;91.60;;;;;;5080562;28;20110;-68
2022/09/25 13:14:30;;;;;;;3.15;1.63;;;16.90;90.30;;;;;;5062232;28;20793;-68
2022/09/25 13:16:59;;;;;;;2.10;1.00;;;16.80;91.90;;;;;;5100262;28;20041;-69
2022/09/25 13:19:28;;;;;;;2.03;1.02;;;16.80;91.70;;;;;;5065298;28;20637;-69
2022/09/25 13:22:12;;;;;;;10.83;5.73;;;16.80;91.30;;;;;;5091194;28;20089;-69
2022/09/25 13:24:46;;;;;;;5.95;2.15;;;16.80;91.70;;;;;;5075999;28;20390;-68
2022/09/25 13:27:17;;;;;;;3.05;1.40;;;16.80;91.60;;;;;;5058036;28;20036;-69
2022/09/25 13:29:54;;;;;;;2.40;1.08;;;16.80;90.70;;;;;;5081665;28;20106;-69
2022/09/25 13:32:22;;;;;;;3.05;1.20;;;16.70;90.90;;;;;;5076980;28;20157;-69